createdAt,value
2022-08-17T00:02:26.216Z,23.70
2022-08-17T00:04:55.029Z,23.90
2022-08-17T00:07:22.236Z,19.83
2022-08-17T00:09:49.341Z,20.13
2022-08-17T00:12:41.605Z,20.48
2022-08-17T00:15:06.372Z,19.23
2022-08-17T00:17:38.175Z,19.92
2022-08-17T00:20:06.584Z,27.67
2022-08-17T00:22:36.411Z,23.30
2022-08-17T00:25:15.306Z,28.13
2022-08-17T00:27:42.497Z,28.05
2022-08-17T00:30:12.883Z,27.30
2022-08-17T00:33:11.876Z,22.52
2022-08-17T00:35:34.690Z,21.77
2022-08-17T00:38:01.835Z,24.98
2022-08-17T00:40:40.096Z,20.70
2022-08-17T00:43:44.287Z,20.80
2022-08-17T00:46:23.300Z,19.13
2022-08-17T00:48:50.907Z,21.13
2022-08-17T00:51:48.771Z,17.52
2022-08-17T00:54:23.106Z,20.05
2022-08-17T00:56:56.994Z,21.85
2022-08-17T00:59:33.794Z,19.90
2022-08-17T01:02:01.540Z,18.38
2022-08-17T01:04:30.351Z,24.20
2022-08-17T01:06:59.150Z,24.08
2022-08-17T01:09:26.194Z,22.67
2022-08-17T01:11:53.585Z,23.63
2022-08-17T01:14:22.575Z,19.75
2022-08-17T01:16:54.566Z,20.75
2022-08-17T01:19:27.457Z,25.55
2022-08-17T01:22:14.420Z,26.67
2022-08-17T01:24:49.475Z,25.35
2022-08-17T01:27:18.473Z,25.35
2022-08-17T01:29:57.894Z,25.05
2022-08-17T01:32:28.181Z,25.95
2022-08-17T01:34:55.567Z,20.70
2022-08-17T01:37:31.752Z,19.35
2022-08-17T01:40:26.409Z,22.25
2022-08-17T01:43:07.351Z,22.67
2022-08-17T01:45:43.062Z,17.75
2022-08-17T01:48:11.025Z,22.88
2022-08-17T01:50:41.077Z,24.60
2022-08-17T01:53:14.393Z,21.50
2022-08-17T01:55:51.045Z,19.70
2022-08-17T01:58:19.705Z,19.35
2022-08-17T02:01:00.720Z,20.30
2022-08-17T02:03:30.892Z,21.83
2022-08-17T02:05:57.899Z,20.33
2022-08-17T02:08:37.311Z,20.25
2022-08-17T02:11:14.706Z,19.67
2022-08-17T02:13:45.934Z,22.45
2022-08-17T02:16:13.644Z,23.13
2022-08-17T02:18:40.690Z,23.15
2022-08-17T02:21:09.030Z,23.45
2022-08-17T02:23:42.300Z,19.08
2022-08-17T02:26:09.344Z,20.38
2022-08-17T02:28:52.544Z,20.60
2022-08-17T02:31:19.941Z,23.58
2022-08-17T02:33:46.875Z,22.90
2022-08-17T02:36:30.360Z,21.48
2022-08-17T02:38:58.659Z,24.67
2022-08-17T02:41:25.753Z,23.58
2022-08-17T02:43:53.636Z,20.00
2022-08-17T02:46:20.718Z,21.20
2022-08-17T02:48:47.768Z,20.17
2022-08-17T02:51:15.035Z,23.70
2022-08-17T02:53:41.950Z,20.60
2022-08-17T02:56:08.936Z,19.45
2022-08-17T02:58:36.271Z,19.92
2022-08-17T03:01:08.574Z,21.02
2022-08-17T03:03:37.413Z,20.48
2022-08-17T03:06:06.214Z,19.85
2022-08-17T03:08:33.983Z,19.02
2022-08-17T03:11:01.000Z,21.38
2022-08-17T03:13:27.961Z,22.85
2022-08-17T03:15:55.092Z,20.80
2022-08-17T03:18:24.672Z,18.88
2022-08-17T03:21:00.400Z,19.67
2022-08-17T03:23:29.623Z,19.67
2022-08-17T03:25:58.493Z,23.13
2022-08-17T03:28:26.383Z,22.42
2022-08-17T03:30:53.780Z,22.02
2022-08-17T03:33:21.232Z,18.85
2022-08-17T03:35:48.547Z,20.23
2022-08-17T03:38:17.458Z,23.58
2022-08-17T03:40:57.941Z,23.20
2022-08-17T03:43:30.168Z,22.55
2022-08-17T03:46:33.961Z,22.55
2022-08-17T03:49:25.390Z,23.13
2022-08-17T03:52:12.957Z,16.70
2022-08-17T03:54:59.339Z,23.20
2022-08-17T03:57:26.897Z,21.73
2022-08-17T03:59:55.310Z,18.65
2022-08-17T04:02:31.851Z,18.20
2022-08-17T04:04:59.873Z,20.60
2022-08-17T04:07:30.567Z,19.77
2022-08-17T04:09:58.159Z,21.42
2022-08-17T04:12:30.852Z,21.30
2022-08-17T04:14:58.377Z,22.77
2022-08-17T04:17:29.314Z,18.42
2022-08-17T04:19:57.127Z,20.20
2022-08-17T04:22:30.205Z,19.88
2022-08-17T04:25:05.264Z,20.02
2022-08-17T04:27:32.381Z,19.85
2022-08-17T04:29:59.337Z,16.27
2022-08-17T04:33:00.802Z,17.52
2022-08-17T04:35:18.474Z,20.52
2022-08-17T04:37:45.691Z,19.02
2022-08-17T04:40:31.001Z,15.52
2022-08-17T04:43:09.013Z,17.45
2022-08-17T04:45:51.259Z,18.17
2022-08-17T04:48:23.068Z,18.48
2022-08-17T04:50:55.578Z,18.48
2022-08-17T04:53:22.497Z,23.63
2022-08-17T04:55:52.554Z,17.40
2022-08-17T04:58:20.420Z,16.42
2022-08-17T05:00:47.810Z,15.80
2022-08-17T05:03:14.832Z,15.20
2022-08-17T05:05:49.812Z,16.10
2022-08-17T05:08:19.628Z,13.95
2022-08-17T05:10:48.713Z,16.38
2022-08-17T05:13:20.419Z,18.83
2022-08-17T05:15:49.900Z,17.42
2022-08-17T05:18:17.610Z,15.13
2022-08-17T05:20:45.455Z,14.13
2022-08-17T05:23:16.640Z,17.02
2022-08-17T05:25:50.327Z,15.40
2022-08-17T05:28:24.175Z,16.58
2022-08-17T05:30:57.987Z,13.07
2022-08-17T05:33:28.932Z,12.75
2022-08-17T05:35:58.334Z,14.13
2022-08-17T05:38:28.624Z,14.65
2022-08-17T05:40:56.323Z,14.88
2022-08-17T05:43:30.121Z,12.57
2022-08-17T05:46:20.083Z,12.77
2022-08-17T05:48:51.576Z,13.98
2022-08-17T05:52:04.199Z,15.57
2022-08-17T05:54:57.061Z,15.02
2022-08-17T05:57:43.410Z,17.55
2022-08-17T06:00:33.077Z,11.82
2022-08-17T06:03:36.617Z,13.07
2022-08-17T06:06:39.828Z,18.42
2022-08-17T06:09:33.937Z,13.27
2022-08-17T06:12:56.502Z,12.90
2022-08-17T06:16:33.497Z,12.75
2022-08-17T06:19:19.901Z,16.27
2022-08-17T06:21:51.301Z,16.70
2022-08-17T06:24:42.067Z,15.25
2022-08-17T06:27:35.668Z,13.73
2022-08-17T06:30:27.404Z,14.82
2022-08-17T06:32:59.582Z,14.95
2022-08-17T06:36:02.758Z,14.63
2022-08-17T06:38:52.530Z,13.90
2022-08-17T06:41:37.992Z,13.32
2022-08-17T06:44:49.933Z,11.68
2022-08-17T06:47:28.542Z,19.88
2022-08-17T06:50:22.037Z,14.05
2022-08-17T06:53:08.913Z,14.55
2022-08-17T06:56:04.742Z,12.77
2022-08-17T06:58:33.744Z,16.48
2022-08-17T07:01:09.046Z,16.45
2022-08-17T07:03:44.884Z,12.35
2022-08-17T07:06:21.611Z,14.07
2022-08-17T07:09:02.474Z,12.45
2022-08-17T07:11:48.661Z,17.65
2022-08-17T07:14:47.672Z,14.73
2022-08-17T07:17:18.407Z,19.10
2022-08-17T07:19:49.112Z,15.80
2022-08-17T07:22:57.751Z,16.30
2022-08-17T07:25:30.524Z,18.10
2022-08-17T07:28:02.574Z,11.93
2022-08-17T07:30:48.970Z,15.05
2022-08-17T07:33:22.725Z,16.10
2022-08-17T07:35:50.586Z,16.17
2022-08-17T07:38:35.639Z,13.23
2022-08-17T07:41:07.729Z,10.77
2022-08-17T07:43:56.487Z,13.38
2022-08-17T07:46:51.504Z,13.30
2022-08-17T07:49:34.423Z,12.80
2022-08-17T07:52:24.779Z,12.82
2022-08-17T07:54:54.701Z,10.90
2022-08-17T07:57:27.944Z,11.93
2022-08-17T08:00:03.004Z,14.20
2022-08-17T08:03:04.899Z,12.07
2022-08-17T08:05:49.973Z,14.32
2022-08-17T08:08:28.233Z,15.65
2022-08-17T08:11:15.675Z,14.32
2022-08-17T08:13:45.565Z,13.32
2022-08-17T08:16:29.256Z,12.82
2022-08-17T08:19:02.784Z,17.95
2022-08-17T08:21:52.197Z,14.82
2022-08-17T08:24:42.122Z,13.27
2022-08-17T08:27:18.438Z,12.10
2022-08-17T08:30:14.142Z,18.77
2022-08-17T08:33:12.574Z,15.95
2022-08-17T08:37:14.525Z,10.88
2022-08-17T08:39:31.178Z,14.68
2022-08-17T08:42:26.490Z,10.07
2022-08-17T08:45:20.554Z,14.57
2022-08-17T08:48:53.043Z,18.67
2022-08-17T08:52:00.212Z,11.90
2022-08-17T08:55:26.226Z,16.73
2022-08-17T08:58:07.632Z,10.82
2022-08-17T09:00:58.471Z,12.38
2022-08-17T09:03:52.747Z,13.30
2022-08-17T09:07:08.581Z,13.20
2022-08-17T09:09:59.467Z,14.00
2022-08-17T09:13:10.063Z,10.90
2022-08-17T09:15:49.898Z,13.60
2022-08-17T09:19:02.914Z,10.85
2022-08-17T09:21:31.243Z,14.93
2022-08-17T09:24:09.804Z,10.70
2022-08-17T09:26:39.493Z,9.85
2022-08-17T09:29:13.726Z,11.43
2022-08-17T09:32:01.616Z,14.75
2022-08-17T09:34:43.796Z,14.07
2022-08-17T09:37:43.428Z,10.80
2022-08-17T09:40:24.880Z,8.95
2022-08-17T09:43:19.498Z,11.70
2022-08-17T09:45:52.926Z,14.23
2022-08-17T09:48:39.394Z,10.13
2022-08-17T09:51:22.870Z,9.63
2022-08-17T09:53:51.033Z,11.60
2022-08-17T09:56:45.966Z,12.50
2022-08-17T09:59:52.929Z,11.43
2022-08-17T10:03:03.257Z,9.93
2022-08-17T10:05:56.856Z,11.93
2022-08-17T10:08:42.473Z,14.52
2022-08-17T10:11:13.901Z,11.85
2022-08-17T10:13:59.514Z,12.15
2022-08-17T10:16:41.310Z,10.85
2022-08-17T10:20:00.139Z,11.60
2022-08-17T10:23:04.538Z,13.43
2022-08-17T10:25:55.979Z,12.25
2022-08-17T10:28:30.520Z,14.98
2022-08-17T10:31:34.452Z,13.32
2022-08-17T10:34:28.872Z,11.00
2022-08-17T10:37:19.871Z,14.82
2022-08-17T10:40:24.823Z,11.63
2022-08-17T10:43:22.977Z,12.88
2022-08-17T10:46:40.889Z,12.68
2022-08-17T10:49:22.603Z,14.20
2022-08-17T10:51:56.814Z,11.35
2022-08-17T10:54:41.952Z,12.63
2022-08-17T10:57:27.041Z,11.85
2022-08-17T10:59:56.915Z,12.38
2022-08-17T11:02:31.589Z,10.45
2022-08-17T11:05:13.548Z,16.23
2022-08-17T11:08:07.466Z,11.02
2022-08-17T11:10:56.335Z,14.65
2022-08-17T11:14:00.503Z,11.15
2022-08-17T11:16:55.576Z,12.95
2022-08-17T11:19:51.854Z,9.18
2022-08-17T11:22:44.926Z,10.68
2022-08-17T11:25:22.697Z,12.43
2022-08-17T11:28:05.710Z,13.15
2022-08-17T11:30:54.528Z,10.90
2022-08-17T11:33:34.054Z,8.75
2022-08-17T11:36:25.448Z,12.18
2022-08-17T11:39:02.907Z,10.63
2022-08-17T11:42:00.602Z,12.65
2022-08-17T11:44:54.073Z,12.07
2022-08-17T11:48:27.007Z,10.45
2022-08-17T11:51:18.442Z,12.25
2022-08-17T11:53:45.927Z,15.07
2022-08-17T11:56:45.202Z,12.43
2022-08-17T11:59:35.867Z,11.38
2022-08-17T12:02:35.198Z,12.20
2022-08-17T12:05:27.505Z,11.38
2022-08-17T12:08:15.340Z,16.50
2022-08-17T12:11:01.133Z,11.30
2022-08-17T12:13:38.539Z,11.93
2022-08-17T12:16:07.366Z,12.93
2022-08-17T12:18:38.404Z,12.70
2022-08-17T12:21:17.643Z,12.68
2022-08-17T12:24:05.332Z,14.52
2022-08-17T12:26:36.067Z,11.48
2022-08-17T12:29:18.306Z,13.95
2022-08-17T12:32:02.133Z,12.05
2022-08-17T12:34:39.859Z,15.23
2022-08-17T12:37:31.693Z,9.88
2022-08-17T12:40:19.522Z,12.60
2022-08-17T12:45:29.743Z,14.38
2022-08-17T12:48:07.887Z,12.88
2022-08-17T12:50:44.901Z,14.85
2022-08-17T12:53:20.744Z,12.95
2022-08-17T12:55:49.546Z,14.85
2022-08-17T12:58:25.839Z,12.00
2022-08-17T13:01:09.876Z,13.55
2022-08-17T13:03:44.762Z,15.63
2022-08-17T13:06:15.042Z,12.75
2022-08-17T13:08:48.131Z,9.82
2022-08-17T13:11:16.165Z,12.18
2022-08-17T13:13:54.297Z,10.32
2022-08-17T13:16:28.212Z,12.68
2022-08-17T13:19:08.851Z,10.23
2022-08-17T13:21:38.018Z,13.32
2022-08-17T13:24:24.148Z,15.05
2022-08-17T13:27:08.302Z,11.20
2022-08-17T13:29:40.861Z,12.15
2022-08-17T13:32:14.266Z,20.25
2022-08-17T13:34:56.139Z,8.07
2022-08-17T13:37:36.061Z,12.43
2022-08-17T13:40:23.220Z,14.85
2022-08-17T13:42:54.252Z,13.40
2022-08-17T13:45:36.460Z,12.75
2022-08-17T13:48:26.986Z,13.35
2022-08-17T13:50:56.902Z,11.38
2022-08-17T13:53:31.179Z,12.57
2022-08-17T13:56:07.389Z,14.48
2022-08-17T13:59:00.295Z,11.20
2022-08-17T14:01:53.900Z,11.73
2022-08-17T14:04:31.574Z,10.18
2022-08-17T14:07:29.536Z,10.85
2022-08-17T14:10:07.989Z,11.93
2022-08-17T14:12:38.741Z,11.23
2022-08-17T14:15:08.837Z,10.32
2022-08-17T14:17:38.911Z,12.43
2022-08-17T14:20:10.371Z,13.15
2022-08-17T14:22:41.250Z,11.85
2022-08-17T14:25:10.721Z,12.75
2022-08-17T14:27:52.245Z,12.45
2022-08-17T14:30:23.447Z,11.30
2022-08-17T14:32:52.106Z,10.98
2022-08-17T14:35:22.420Z,12.88
2022-08-17T14:37:50.582Z,10.43
2022-08-17T14:40:20.834Z,11.80
2022-08-17T14:42:48.424Z,12.30
2022-08-17T14:45:31.722Z,12.13
2022-08-17T14:47:59.632Z,10.45
2022-08-17T14:50:27.231Z,15.43
2022-08-17T14:52:58.058Z,17.27
2022-08-17T14:55:26.191Z,17.33
2022-08-17T14:57:53.466Z,12.38
2022-08-17T15:00:20.527Z,10.70
2022-08-17T15:02:54.781Z,13.05
2022-08-17T15:05:24.963Z,10.75
2022-08-17T15:07:53.497Z,13.32
2022-08-17T15:10:20.938Z,14.23
2022-08-17T15:12:48.588Z,10.10
2022-08-17T15:15:17.696Z,15.63
2022-08-17T15:17:46.053Z,10.80
2022-08-17T15:20:25.396Z,15.60
2022-08-17T15:22:55.527Z,11.13
2022-08-17T15:25:25.037Z,9.35
2022-08-17T15:27:52.778Z,13.85
2022-08-17T15:30:20.153Z,11.25
2022-08-17T15:32:54.452Z,16.67
2022-08-17T15:35:28.197Z,12.95
2022-08-17T15:38:04.941Z,16.77
2022-08-17T15:40:39.304Z,14.45
2022-08-17T15:43:27.088Z,13.57
2022-08-17T15:46:10.882Z,13.32
2022-08-17T15:48:42.456Z,13.52
2022-08-17T15:51:18.501Z,12.55
2022-08-17T15:53:49.707Z,11.88
2022-08-17T15:56:17.427Z,13.70
2022-08-17T15:58:46.838Z,13.52
2022-08-17T16:01:18.793Z,12.30
2022-08-17T16:04:06.906Z,15.38
2022-08-17T16:06:34.772Z,15.65
2022-08-17T16:09:01.772Z,12.25
2022-08-17T16:11:28.773Z,14.93
2022-08-17T16:13:56.091Z,13.55
2022-08-17T16:16:23.786Z,14.05
2022-08-17T16:18:54.763Z,20.75
2022-08-17T16:21:25.986Z,19.95
2022-08-17T16:24:13.074Z,18.83
2022-08-17T16:26:42.789Z,20.35
2022-08-17T16:29:09.876Z,13.20
2022-08-17T16:31:37.840Z,17.48
2022-08-17T16:34:17.716Z,13.30
2022-08-17T16:36:54.738Z,14.20
2022-08-17T16:39:27.215Z,13.15
2022-08-17T16:41:56.100Z,13.20
2022-08-17T16:44:23.242Z,19.55
2022-08-17T16:46:50.538Z,13.13
2022-08-17T16:49:35.282Z,17.92
2022-08-17T16:52:07.049Z,14.77
2022-08-17T16:54:35.524Z,15.10
2022-08-17T16:57:05.186Z,19.30
2022-08-17T16:59:40.914Z,14.18
2022-08-17T17:02:14.172Z,15.55
2022-08-17T17:05:25.213Z,13.05
2022-08-17T17:08:37.500Z,14.32
2022-08-17T17:11:41.740Z,13.63
2022-08-17T17:14:32.367Z,15.85
2022-08-17T17:17:06.978Z,17.23
2022-08-17T17:20:06.391Z,17.08
2022-08-17T17:22:48.041Z,17.58
2022-08-17T17:25:41.064Z,15.63
2022-08-17T17:29:00.195Z,16.73
2022-08-17T17:31:39.787Z,16.85
2022-08-17T17:34:10.555Z,12.27
2022-08-17T17:36:47.097Z,14.05
2022-08-17T17:39:31.925Z,13.82
2022-08-17T17:42:05.816Z,14.00
2022-08-17T17:44:39.047Z,18.92
2022-08-17T17:47:06.198Z,16.23
2022-08-17T17:49:43.967Z,15.30
2022-08-17T17:52:49.745Z,15.77
2022-08-17T17:56:01.869Z,14.90
2022-08-17T17:59:06.598Z,16.50
2022-08-17T18:02:51.145Z,14.88
2022-08-17T18:05:38.867Z,18.85
2022-08-17T18:09:06.329Z,16.05
2022-08-17T18:11:58.951Z,19.77
2022-08-17T18:15:04.723Z,17.63
2022-08-17T18:17:31.658Z,19.52
2022-08-17T18:19:58.627Z,20.85
2022-08-17T18:22:27.786Z,19.25
2022-08-17T18:24:57.220Z,16.75
2022-08-17T18:27:50.869Z,18.80
2022-08-17T18:30:17.812Z,18.73
2022-08-17T18:32:46.660Z,18.75
2022-08-17T18:35:16.288Z,16.10
2022-08-17T18:37:51.682Z,18.55
2022-08-17T18:40:21.403Z,20.52
2022-08-17T18:43:44.222Z,21.92
2022-08-17T18:46:30.451Z,18.58
2022-08-17T18:49:01.984Z,18.95
2022-08-17T18:51:41.856Z,18.90
2022-08-17T18:54:23.168Z,19.75
2022-08-17T18:56:59.355Z,19.52
2022-08-17T18:59:48.260Z,18.95
2022-08-17T19:02:28.358Z,19.17
2022-08-17T19:05:13.341Z,19.75
2022-08-17T19:07:46.259Z,21.42
2022-08-17T19:10:30.535Z,22.50
2022-08-17T19:13:13.660Z,23.98
2022-08-17T19:16:12.160Z,22.23
2022-08-17T19:18:56.086Z,23.77
2022-08-17T19:21:37.318Z,22.85
2022-08-17T19:24:14.401Z,23.05
2022-08-17T19:26:54.799Z,26.90
2022-08-17T19:29:38.805Z,25.42
2022-08-17T19:32:09.179Z,28.60
2022-08-17T19:34:38.336Z,25.05
2022-08-17T19:37:13.108Z,29.58
2022-08-17T19:39:59.064Z,24.15
2022-08-17T19:42:58.112Z,25.00
2022-08-17T19:45:45.171Z,25.27
2022-08-17T19:48:55.970Z,26.10
2022-08-17T19:52:04.984Z,22.48
2022-08-17T19:54:56.564Z,23.88
2022-08-17T19:57:44.248Z,25.73
2022-08-17T20:00:16.282Z,22.15
2022-08-17T20:03:26.086Z,21.75
2022-08-17T20:06:14.345Z,21.98
2022-08-17T20:09:03.034Z,20.65
2022-08-17T20:11:42.521Z,23.38
2022-08-17T20:14:19.345Z,21.73
2022-08-17T20:16:46.450Z,23.13
2022-08-17T20:19:51.906Z,24.60
2022-08-17T20:22:49.364Z,20.23
2022-08-17T20:25:54.685Z,29.23
2022-08-17T20:28:31.776Z,20.45
2022-08-17T20:30:58.982Z,27.23
2022-08-17T20:33:36.967Z,32.13
2022-08-17T20:36:18.795Z,28.02
2022-08-17T20:38:54.468Z,27.88
2022-08-17T20:41:27.604Z,27.20
2022-08-17T20:43:57.591Z,23.45
2022-08-17T20:46:51.437Z,20.95
2022-08-17T20:49:39.378Z,24.38
2022-08-17T20:52:15.628Z,28.40
2022-08-17T20:54:53.219Z,28.05
2022-08-17T20:57:32.378Z,25.98
2022-08-17T21:00:19.337Z,21.38
2022-08-17T21:02:51.471Z,24.13
2022-08-17T21:05:38.890Z,24.65
2022-08-17T21:08:18.482Z,23.65
2022-08-17T21:10:46.894Z,21.17
2022-08-17T21:13:15.639Z,27.15
2022-08-17T21:15:49.129Z,20.55
2022-08-17T21:18:41.763Z,20.02
2022-08-17T21:22:01.405Z,18.58
2022-08-17T21:25:22.603Z,23.30
2022-08-17T21:28:29.940Z,22.63
2022-08-17T21:31:09.133Z,22.98
2022-08-17T21:33:40.018Z,20.42
2022-08-17T21:36:13.037Z,21.67
2022-08-17T21:39:01.033Z,23.83
2022-08-17T21:41:34.281Z,25.02
2022-08-17T21:44:18.666Z,25.02
2022-08-17T21:46:49.450Z,26.20
2022-08-17T21:49:21.404Z,21.02
2022-08-17T21:51:56.622Z,21.42
2022-08-17T21:54:35.518Z,20.45
2022-08-17T21:57:06.951Z,20.50
2022-08-17T21:59:44.203Z,20.15
2022-08-17T22:02:25.442Z,20.20
2022-08-17T22:05:02.596Z,20.30
2022-08-17T22:07:42.104Z,23.83
2022-08-17T22:10:30.637Z,21.70
2022-08-17T22:13:16.853Z,19.70
2022-08-17T22:15:52.970Z,23.92
2022-08-17T22:18:27.334Z,22.75
2022-08-17T22:20:58.061Z,18.15
2022-08-17T22:23:51.886Z,23.92
2022-08-17T22:26:22.568Z,24.02
2022-08-17T22:28:56.655Z,18.52
2022-08-17T22:31:26.310Z,24.20
2022-08-17T22:34:14.234Z,23.80
2022-08-17T22:36:42.699Z,23.83
2022-08-17T22:39:09.495Z,25.30
2022-08-17T22:41:51.037Z,24.48
2022-08-17T22:44:24.998Z,23.63
2022-08-17T22:46:57.091Z,21.05
2022-08-17T22:49:38.543Z,24.30
2022-08-17T22:52:56.082Z,26.55
2022-08-17T22:55:42.485Z,25.48
2022-08-17T22:58:31.946Z,23.92
2022-08-17T23:01:29.162Z,22.13
2022-08-17T23:03:59.726Z,23.52
2022-08-17T23:06:27.639Z,26.73
2022-08-17T23:08:55.060Z,23.52
2022-08-17T23:11:36.688Z,24.38
2022-08-17T23:14:16.560Z,25.52
2022-08-17T23:16:43.614Z,24.35
2022-08-17T23:19:17.641Z,24.88
2022-08-17T23:21:45.141Z,21.85
2022-08-17T23:24:24.888Z,24.98
2022-08-17T23:26:52.352Z,26.85
2022-08-17T23:29:20.558Z,23.65
2022-08-17T23:31:49.684Z,23.98
2022-08-17T23:34:18.492Z,24.63
2022-08-17T23:36:52.276Z,26.45
2022-08-17T23:39:24.664Z,26.08
2022-08-17T23:41:59.664Z,25.42
2022-08-17T23:47:12.968Z,25.20
2022-08-17T23:49:41.339Z,24.42
2022-08-17T23:52:15.264Z,26.85
2022-08-17T23:54:47.148Z,21.38
2022-08-17T23:57:18.258Z,27.63
2022-08-17T23:59:45.720Z,27.35
